Time;durP1;ratioP1;P1;durP2;ratioP2;P2;SDS_P1;SDS_P2;PMS_P1;PMS_P2;Temp;Humidity;BMP_temperature;BMP_pressure;BME280_temperature;BME280_humidity;BME280_pressure;Samples;Min_cycle;Max_cycle;Signal;HPM_P1;HPM_P2
2022/05/01 00:01:19;;;;;;;;;;;25.80;40.00;;;;;;5048798;28;1014;-44
2022/05/01 00:03:46;;;;;;;;;;;25.80;40.00;;;;;;5050792;28;1017;-44
2022/05/01 00:06:13;;;;;;;;;;;25.80;40.00;;;;;;5049917;28;1250;-44
2022/05/01 00:08:40;;;;;;;;;;;25.80;40.00;;;;;;5050848;28;932;-43
2022/05/01 00:11:09;;;;;;;;;;;25.80;40.00;;;;;;5049865;28;691;-43
2022/05/01 00:13:36;;;;;;;;;;;25.80;40.00;;;;;;5050638;28;961;-43
2022/05/01 00:16:03;;;;;;;;;;;25.80;39.90;;;;;;5053252;28;1910;-43
2022/05/01 00:18:29;;;;;;;;;;;25.70;41.10;;;;;;5053386;28;1014;-43
2022/05/01 00:20:56;;;;;;;;;;;25.70;40.00;;;;;;5053817;28;937;-43
2022/05/01 00:23:23;;;;;;;;;;;25.80;40.00;;;;;;5055428;28;994;-42
2022/05/01 00:25:49;;;;;;;;;;;25.70;40.00;;;;;;5054199;28;1803;-43
2022/05/01 00:28:17;;;;;;;;;;;25.80;40.00;;;;;;5055546;28;945;-43
2022/05/01 00:30:44;;;;;;;;;;;25.80;40.00;;;;;;5055022;28;854;-44
2022/05/01 00:38:39;;;;;;;;;;;25.80;39.90;;;;;;5054350;28;934;-44
2022/05/01 00:41:07;;;;;;;;;;;25.70;39.90;;;;;;5054658;28;1138;-44
2022/05/01 00:43:55;;;;;;;;;;;25.70;39.90;;;;;;5055630;28;1028;-44
2022/05/01 00:46:23;;;;;;;;;;;25.70;40.00;;;;;;5054043;28;1885;-43
2022/05/01 00:48:50;;;;;;;;;;;25.70;40.00;;;;;;5055256;28;993;-46
2022/05/01 00:51:17;;;;;;;;;;;25.70;40.00;;;;;;5055007;28;992;-45
2022/05/01 00:53:44;;;;;;;;;;;25.70;40.00;;;;;;5054889;28;997;-46
2022/05/01 00:56:11;;;;;;;;;;;25.70;40.00;;;;;;5054211;28;1906;-46
2022/05/01 00:58:40;;;;;;;;;;;25.70;40.00;;;;;;5054839;28;1001;-45
2022/05/01 01:01:07;;;;;;;;;;;25.70;40.00;;;;;;5052883;28;973;-43
2022/05/01 01:03:34;;;;;;;;;;;25.70;40.00;;;;;;5053925;28;910;-43
2022/05/01 01:06:00;;;;;;;;;;;25.70;40.00;;;;;;5054031;28;988;-43
2022/05/01 01:08:27;;;;;;;;;;;25.70;39.90;;;;;;5054150;28;889;-45
2022/05/01 01:10:54;;;;;;;;;;;25.70;40.00;;;;;;5046374;28;897;-45
2022/05/01 01:13:26;;;;;;;;;;;25.70;40.00;;;;;;5036745;28;984;-45
2022/05/01 01:15:55;;;;;;;;;;;25.70;40.00;;;;;;5055083;28;1009;-45
2022/05/01 01:18:21;;;;;;;;;;;25.70;40.00;;;;;;5055368;28;1019;-45
2022/05/01 01:20:51;;;;;;;;;;;25.70;39.90;;;;;;5037903;28;940;-45
2022/05/01 01:23:18;;;;;;;;;;;25.70;40.00;;;;;;5054234;28;993;-45
2022/05/01 01:25:47;;;;;;;;;;;25.70;40.00;;;;;;5053005;28;1035;-45
2022/05/01 01:28:14;;;;;;;;;;;25.70;40.00;;;;;;5053591;28;944;-43
2022/05/01 01:33:28;;;;;;;;;;;25.70;39.90;;;;;;5051266;28;1029;-43
2022/05/01 01:35:56;;;;;;;;;;;25.70;40.00;;;;;;5051802;28;989;-43
2022/05/01 01:38:23;;;;;;;;;;;25.70;40.00;;;;;;5053562;28;2315;-42
2022/05/01 01:40:52;;;;;;;;;;;25.70;40.00;;;;;;5054974;28;1148;-39
2022/05/01 01:43:19;;;;;;;;;;;25.70;40.00;;;;;;5055247;28;952;-42
2022/05/01 01:45:46;;;;;;;;;;;25.60;39.90;;;;;;5054642;28;917;-42
2022/05/01 01:48:14;;;;;;;;;;;25.60;39.90;;;;;;5053821;28;1474;-43
2022/05/01 01:50:41;;;;;;;;;;;25.60;39.90;;;;;;5053990;28;900;-43
2022/05/01 01:53:10;;;;;;;;;;;25.70;40.00;;;;;;5054791;28;960;-44
2022/05/01 01:55:38;;;;;;;;;;;25.60;40.00;;;;;;5054978;28;1057;-43
2022/05/01 01:58:05;;;;;;;;;;;25.60;40.00;;;;;;5055003;28;1957;-43
2022/05/01 02:00:32;;;;;;;;;;;25.70;40.00;;;;;;5054010;28;1008;-43
2022/05/01 02:02:59;;;;;;;;;;;25.60;40.00;;;;;;5057847;28;928;-44
2022/05/01 02:05:25;;;;;;;;;;;25.60;40.00;;;;;;5054647;28;999;-43
2022/05/01 02:07:52;;;;;;;;;;;25.60;40.00;;;;;;5053874;28;1010;-43
2022/05/01 02:10:20;;;;;;;;;;;25.60;40.00;;;;;;5054192;28;1087;-43
2022/05/01 02:12:47;;;;;;;;;;;25.60;39.90;;;;;;5053638;28;1012;-45
2022/05/01 02:15:14;;;;;;;;;;;25.60;39.90;;;;;;5054196;28;953;-43
2022/05/01 02:17:41;;;;;;;;;;;25.60;39.90;;;;;;5053919;28;1995;-43
2022/05/01 02:20:09;;;;;;;;;;;25.60;39.90;;;;;;5054572;28;1008;-43
2022/05/01 02:22:36;;;;;;;;;;;25.60;39.90;;;;;;5053938;28;932;-43
2022/05/01 02:25:03;;;;;;;;;;;25.60;39.90;;;;;;5053542;28;928;-45
2022/05/01 02:27:31;;;;;;;;;;;25.60;39.90;;;;;;5054820;28;881;-46
2022/05/01 02:29:57;;;;;;;;;;;25.60;39.90;;;;;;5055293;28;1006;-46
2022/05/01 02:32:24;;;;;;;;;;;25.60;39.90;;;;;;5054976;28;941;-45
2022/05/01 02:34:51;;;;;;;;;;;25.60;40.00;;;;;;5053258;28;906;-45
2022/05/01 02:37:18;;;;;;;;;;;25.60;39.90;;;;;;5053662;28;1910;-45
2022/05/01 02:39:45;;;;;;;;;;;25.60;39.90;;;;;;5055315;28;1792;-45
2022/05/01 02:42:13;;;;;;;;;;;25.60;39.90;;;;;;5054611;28;1186;-45
2022/05/01 02:44:41;;;;;;;;;;;25.60;39.90;;;;;;5053842;28;866;-45
2022/05/01 02:47:07;;;;;;;;;;;25.60;39.90;;;;;;5053285;28;960;-39
2022/05/01 02:49:35;;;;;;;;;;;25.60;39.90;;;;;;5052410;28;995;-42
2022/05/01 02:52:02;;;;;;;;;;;25.60;39.80;;;;;;5052851;28;940;-44
2022/05/01 02:54:29;;;;;;;;;;;25.60;39.90;;;;;;5053980;28;981;-44
2022/05/01 02:56:55;;;;;;;;;;;25.60;39.80;;;;;;5052546;28;1983;-43
2022/05/01 03:02:36;;;;;;;;;;;25.60;39.90;;;;;;5053337;28;701;-45
2022/05/01 03:05:04;;;;;;;;;;;25.60;39.90;;;;;;5051869;28;973;-40
2022/05/01 03:07:31;;;;;;;;;;;25.60;39.90;;;;;;5053503;28;1008;-39
2022/05/01 03:09:57;;;;;;;;;;;25.60;39.90;;;;;;5051781;28;968;-39
2022/05/01 03:12:24;;;;;;;;;;;25.60;40.00;;;;;;5053438;28;892;-45
2022/05/01 03:14:51;;;;;;;;;;;25.50;39.90;;;;;;5053011;28;975;-45
2022/05/01 03:17:18;;;;;;;;;;;25.60;39.90;;;;;;5052671;28;1894;-45
2022/05/01 03:22:31;;;;;;;;;;;25.60;39.80;;;;;;5052311;28;646;-45
2022/05/01 03:24:58;;;;;;;;;;;25.60;39.90;;;;;;5051894;28;885;-45
2022/05/01 03:27:24;;;;;;;;;;;25.60;39.90;;;;;;5052714;28;973;-45
2022/05/01 03:32:32;;;;;;;;;;;25.60;39.90;;;;;;5053519;28;1042;-44
2022/05/01 03:35:01;;;;;;;;;;;25.50;39.90;;;;;;5053010;28;966;-44
2022/05/01 03:37:28;;;;;;;;;;;25.60;39.90;;;;;;5053251;28;1993;-44
2022/05/01 03:39:54;;;;;;;;;;;25.50;39.90;;;;;;5053381;28;989;-44
2022/05/01 03:42:21;;;;;;;;;;;25.60;39.90;;;;;;5053742;28;1265;-44
2022/05/01 03:44:48;;;;;;;;;;;25.50;39.90;;;;;;5053763;28;1013;-44
2022/05/01 03:47:15;;;;;;;;;;;25.50;39.80;;;;;;5053147;28;948;-44
2022/05/01 03:49:41;;;;;;;;;;;25.50;39.90;;;;;;5054900;28;882;-44
2022/05/01 03:52:09;;;;;;;;;;;25.50;39.80;;;;;;5056962;28;1012;-44
2022/05/01 03:54:36;;;;;;;;;;;25.50;39.90;;;;;;5055687;28;1008;-41
2022/05/01 03:57:03;;;;;;;;;;;25.50;40.00;;;;;;5057269;28;1902;-39
2022/05/01 03:59:30;;;;;;;;;;;25.50;39.90;;;;;;5056608;28;1041;-43
2022/05/01 04:01:57;;;;;;;;;;;25.40;39.80;;;;;;5057571;28;993;-43
2022/05/01 04:04:24;;;;;;;;;;;25.50;40.00;;;;;;5057567;28;1063;-44
2022/05/01 04:06:50;;;;;;;;;;;25.50;39.90;;;;;;5057701;28;973;-44
2022/05/01 04:09:21;;;;;;;;;;;25.50;39.80;;;;;;5056650;28;1028;-44
2022/05/01 04:11:47;;;;;;;;;;;25.50;39.90;;;;;;5056443;28;1073;-42
2022/05/01 04:14:14;;;;;;;;;;;25.50;39.90;;;;;;5056245;28;973;-41
2022/05/01 04:16:41;;;;;;;;;;;25.50;39.90;;;;;;5056359;28;1000;-39
2022/05/01 04:19:11;;;;;;;;;;;25.50;39.90;;;;;;5056109;28;1910;-41
2022/05/01 04:21:38;;;;;;;;;;;25.50;39.90;;;;;;5057033;28;851;-41
2022/05/01 04:24:05;;;;;;;;;;;25.40;39.80;;;;;;5057330;28;999;-45
2022/05/01 04:26:33;;;;;;;;;;;25.50;39.90;;;;;;5055865;28;1012;-45
2022/05/01 04:31:44;;;;;;;;;;;25.50;39.80;;;;;;5055844;28;605;-46
2022/05/01 04:34:11;;;;;;;;;;;25.50;39.80;;;;;;5055237;28;937;-45
2022/05/01 04:36:39;;;;;;;;;;;25.40;39.80;;;;;;5055695;28;1067;-45
2022/05/01 04:39:06;;;;;;;;;;;25.40;39.80;;;;;;5056381;28;2005;-45
2022/05/01 04:41:34;;;;;;;;;;;25.50;39.90;;;;;;5054751;28;1021;-43
2022/05/01 04:44:00;;;;;;;;;;;25.50;39.90;;;;;;5056037;28;939;-43
2022/05/01 04:46:27;;;;;;;;;;;25.40;39.80;;;;;;5056416;28;988;-43
2022/05/01 04:48:54;;;;;;;;;;;25.40;39.80;;;;;;5057190;28;972;-44
2022/05/01 04:51:21;;;;;;;;;;;25.40;39.90;;;;;;5056852;28;941;-43
2022/05/01 04:53:47;;;;;;;;;;;25.40;39.90;;;;;;5055576;28;1016;-44
2022/05/01 04:59:01;;;;;;;;;;;25.40;40.00;;;;;;5056240;28;1983;-42
2022/05/01 05:01:27;;;;;;;;;;;25.40;40.10;;;;;;5054818;28;869;-41
2022/05/01 05:03:54;;;;;;;;;;;25.40;39.90;;;;;;5055649;28;1019;-41
2022/05/01 05:06:23;;;;;;;;;;;25.40;39.90;;;;;;5055844;28;925;-38
2022/05/01 05:11:33;;;;;;;;;;;25.40;40.00;;;;;;5055751;28;635;-43
2022/05/01 05:14:01;;;;;;;;;;;25.40;40.10;;;;;;5055417;28;991;-44
2022/05/01 05:16:29;;;;;;;;;;;25.40;40.10;;;;;;5055342;28;1001;-44
2022/05/01 05:18:55;;;;;;;;;;;25.40;40.00;;;;;;5055802;28;1906;-44
2022/05/01 05:21:22;;;;;;;;;;;25.40;40.00;;;;;;5057512;28;1160;-43
2022/05/01 05:23:49;;;;;;;;;;;25.40;40.10;;;;;;5056074;28;1227;-45
2022/05/01 05:26:15;;;;;;;;;;;25.40;40.10;;;;;;5054922;28;917;-44
2022/05/01 05:28:42;;;;;;;;;;;25.40;40.10;;;;;;5056013;28;690;-44
2022/05/01 05:31:11;;;;;;;;;;;25.40;40.00;;;;;;5056167;28;1126;-44
2022/05/01 05:33:37;;;;;;;;;;;25.40;40.10;;;;;;5055984;28;1035;-44
2022/05/01 05:36:04;;;;;;;;;;;25.40;40.10;;;;;;5055636;28;933;-44
2022/05/01 05:38:33;;;;;;;;;;;25.40;40.10;;;;;;5055657;28;1984;-43
2022/05/01 05:41:00;;;;;;;;;;;25.40;40.00;;;;;;5055373;28;1606;-44
2022/05/01 05:43:26;;;;;;;;;;;25.40;40.00;;;;;;5053828;28;1120;-44
2022/05/01 05:45:53;;;;;;;;;;;25.40;40.00;;;;;;5053666;28;992;-44
2022/05/01 05:48:22;;;;;;;;;;;25.40;40.00;;;;;;5054293;28;1022;-43
2022/05/01 05:50:48;;;;;;;;;;;25.40;40.00;;;;;;5053999;28;1008;-44
2022/05/01 05:53:15;;;;;;;;;;;25.40;40.00;;;;;;5054918;28;959;-44
2022/05/01 05:55:42;;;;;;;;;;;25.40;40.10;;;;;;5053742;28;900;-44
2022/05/01 05:58:09;;;;;;;;;;;25.40;40.20;;;;;;5053563;28;1975;-44
2022/05/01 06:00:35;;;;;;;;;;;25.40;40.10;;;;;;5054053;28;982;-44
2022/05/01 06:03:02;;;;;;;;;;;25.40;40.10;;;;;;5053837;28;938;-44
2022/05/01 06:05:30;;;;;;;;;;;25.40;40.10;;;;;;5052484;28;1800;-44
2022/05/01 06:07:57;;;;;;;;;;;25.40;40.10;;;;;;5052851;28;1024;-44
2022/05/01 06:10:24;;;;;;;;;;;25.40;40.10;;;;;;5052720;28;977;-45
2022/05/01 06:12:50;;;;;;;;;;;25.40;40.20;;;;;;5050351;28;936;-44
2022/05/01 06:15:17;;;;;;;;;;;25.40;40.20;;;;;;5053120;28;1051;-44
2022/05/01 06:17:44;;;;;;;;;;;25.40;40.10;;;;;;5052705;28;1977;-44
2022/05/01 06:20:11;;;;;;;;;;;25.40;40.10;;;;;;5052194;28;1011;-43
2022/05/01 06:22:39;;;;;;;;;;;25.40;40.10;;;;;;5052328;28;896;-42
2022/05/01 06:25:06;;;;;;;;;;;25.40;40.10;;;;;;5053060;28;1012;-42
2022/05/01 06:27:33;;;;;;;;;;;25.40;40.00;;;;;;5052896;28;981;-43
2022/05/01 06:29:59;;;;;;;;;;;25.40;40.00;;;;;;5052033;28;1000;-43
2022/05/01 06:32:26;;;;;;;;;;;25.40;40.00;;;;;;5051017;28;858;-43
2022/05/01 06:34:53;;;;;;;;;;;25.50;40.10;;;;;;5052299;28;1172;-45
2022/05/01 06:37:20;;;;;;;;;;;25.40;40.00;;;;;;5052511;28;1013;-45
2022/05/01 06:39:50;;;;;;;;;;;25.40;40.20;;;;;;5052825;28;1979;-45
2022/05/01 06:42:16;;;;;;;;;;;25.40;40.10;;;;;;5052178;28;1080;-46
2022/05/01 06:44:45;;;;;;;;;;;25.40;40.10;;;;;;5052226;28;992;-45
2022/05/01 06:47:13;;;;;;;;;;;25.40;40.10;;;;;;5052491;28;959;-45
2022/05/01 06:49:39;;;;;;;;;;;25.40;40.10;;;;;;5050977;28;944;-46
2022/05/01 06:52:07;;;;;;;;;;;25.40;40.10;;;;;;5051917;28;992;-46
2022/05/01 06:54:33;;;;;;;;;;;25.40;40.10;;;;;;5052776;28;997;-45
2022/05/01 06:57:01;;;;;;;;;;;25.40;40.10;;;;;;5051437;28;1013;-45
2022/05/01 06:59:28;;;;;;;;;;;25.40;40.00;;;;;;5051495;28;1910;-45
2022/05/01 07:01:55;;;;;;;;;;;25.40;40.10;;;;;;5050402;28;1063;-45
2022/05/01 07:04:21;;;;;;;;;;;25.40;40.10;;;;;;5051045;28;1004;-45
2022/05/01 07:06:48;;;;;;;;;;;25.40;40.10;;;;;;5049482;28;1015;-45
2022/05/01 07:09:15;;;;;;;;;;;25.50;40.10;;;;;;5047451;28;1135;-44
2022/05/01 07:11:42;;;;;;;;;;;25.50;40.10;;;;;;5048368;28;1015;-45
2022/05/01 07:14:10;;;;;;;;;;;25.40;40.10;;;;;;5047621;28;1006;-45
2022/05/01 07:16:37;;;;;;;;;;;25.40;40.20;;;;;;5049375;28;1019;-45
2022/05/01 07:19:03;;;;;;;;;;;25.40;40.10;;;;;;5049211;28;1980;-45
2022/05/01 07:21:30;;;;;;;;;;;25.40;40.10;;;;;;5048450;28;997;-45
2022/05/01 07:23:57;;;;;;;;;;;25.50;40.20;;;;;;5047418;28;901;-45
2022/05/01 07:26:25;;;;;;;;;;;25.40;40.10;;;;;;5048821;28;1055;-39
2022/05/01 07:28:52;;;;;;;;;;;25.40;40.10;;;;;;5049130;28;1011;-42
2022/05/01 07:31:20;;;;;;;;;;;25.40;40.20;;;;;;5049898;28;989;-41
2022/05/01 07:33:47;;;;;;;;;;;25.40;40.10;;;;;;5050148;28;1127;-40
2022/05/01 07:36:14;;;;;;;;;;;25.50;40.20;;;;;;5048300;28;973;-38
2022/05/01 07:38:40;;;;;;;;;;;25.50;40.20;;;;;;5048252;28;1901;-39
2022/05/01 07:41:07;;;;;;;;;;;25.50;40.10;;;;;;5047466;28;1057;-45
2022/05/01 07:43:34;;;;;;;;;;;25.40;40.10;;;;;;5047952;28;1027;-45
2022/05/01 07:46:02;;;;;;;;;;;25.40;40.10;;;;;;5048253;28;1438;-45
2022/05/01 07:48:30;;;;;;;;;;;25.50;40.20;;;;;;5047581;28;889;-45
2022/05/01 07:50:57;;;;;;;;;;;25.50;40.20;;;;;;5046700;28;986;-45
2022/05/01 07:53:23;;;;;;;;;;;25.50;40.20;;;;;;5048871;28;921;-45
2022/05/01 07:55:50;;;;;;;;;;;25.50;40.20;;;;;;5046027;28;973;-45
2022/05/01 07:58:19;;;;;;;;;;;25.50;40.30;;;;;;5047692;28;1902;-45
2022/05/01 08:00:46;;;;;;;;;;;25.50;40.20;;;;;;5048233;28;936;-45
2022/05/01 08:05:58;;;;;;;;;;;25.50;40.20;;;;;;5047329;28;1021;-45
2022/05/01 08:08:25;;;;;;;;;;;25.40;40.30;;;;;;5047000;28;1494;-45
2022/05/01 08:10:52;;;;;;;;;;;25.40;40.20;;;;;;5046031;28;949;-45
2022/05/01 08:13:19;;;;;;;;;;;25.40;40.20;;;;;;5046037;28;829;-46
2022/05/01 08:15:46;;;;;;;;;;;25.50;40.30;;;;;;5046854;28;1051;-45
2022/05/01 08:21:08;;;;;;;;;;;25.40;40.30;;;;;;5046875;28;907;-44
2022/05/01 08:23:36;;;;;;;;;;;25.40;40.30;;;;;;5048957;28;996;-45
2022/05/01 08:26:03;;;;;;;;;;;25.50;40.30;;;;;;5047922;28;1309;-43
2022/05/01 08:28:30;;;;;;;;;;;25.40;40.30;;;;;;5047645;28;932;-44
2022/05/01 08:30:57;;;;;;;;;;;25.40;40.30;;;;;;5047510;28;1164;-43
2022/05/01 08:33:24;;;;;;;;;;;25.40;40.30;;;;;;5047211;28;846;-45
2022/05/01 08:35:50;;;;;;;;;;;25.40;40.30;;;;;;5048825;28;1073;-45
2022/05/01 08:38:19;;;;;;;;;;;25.40;40.30;;;;;;5049943;28;1976;-43
2022/05/01 08:40:46;;;;;;;;;;;25.40;40.40;;;;;;5051353;28;1127;-43
2022/05/01 08:43:15;;;;;;;;;;;25.40;40.40;;;;;;5050866;28;905;-42
2022/05/01 08:45:42;;;;;;;;;;;25.40;40.50;;;;;;5051297;28;932;-40
2022/05/01 08:48:13;;;;;;;;;;;25.40;40.50;;;;;;5050786;28;897;-40
2022/05/01 08:50:39;;;;;;;;;;;25.40;40.40;;;;;;5051007;28;1314;-42
2022/05/01 08:53:07;;;;;;;;;;;25.40;40.50;;;;;;5050978;28;909;-42
2022/05/01 08:55:35;;;;;;;;;;;25.40;40.30;;;;;;5050175;28;921;-38
2022/05/01 08:58:02;;;;;;;;;;;25.40;40.30;;;;;;5050445;28;889;-40
2022/05/01 09:00:30;;;;;;;;;;;25.40;40.30;;;;;;5050127;28;1906;-38
2022/05/01 09:02:57;;;;;;;;;;;25.50;40.20;;;;;;5049322;28;981;-42
2022/05/01 09:05:24;;;;;;;;;;;25.50;40.20;;;;;;5048952;28;1037;-40
2022/05/01 09:07:51;;;;;;;;;;;25.50;40.30;;;;;;5049939;28;936;-42
2022/05/01 09:10:19;;;;;;;;;;;25.50;40.20;;;;;;5049009;28;893;-41
2022/05/01 09:12:53;;;;;;;;;;;25.50;40.20;;;;;;5048625;28;1017;-41
2022/05/01 09:15:30;;;;;;;;;;;25.50;40.30;;;;;;5049165;28;1192;-39
2022/05/01 09:18:01;;;;;;;;;;;25.50;40.10;;;;;;5049179;28;969;-42
2022/05/01 09:23:54;;;;;;;;;;;25.50;40.10;;;;;;5052581;28;1000;-43
2022/05/01 09:26:22;;;;;;;;;;;25.50;40.00;;;;;;5050807;28;928;-43
2022/05/01 09:28:50;;;;;;;;;;;25.50;40.00;;;;;;5051024;28;1335;-43
2022/05/01 09:31:17;;;;;;;;;;;25.50;40.00;;;;;;5049173;28;958;-43
2022/05/01 09:33:44;;;;;;;;;;;25.50;40.00;;;;;;5048777;28;866;-43
2022/05/01 09:36:32;;;;;;;;;;;25.50;40.00;;;;;;5050077;28;1152;-43
2022/05/01 09:39:02;;;;;;;;;;;25.50;39.90;;;;;;5049143;28;2036;-43
2022/05/01 09:41:29;;;;;;;;;;;25.50;39.90;;;;;;5050735;28;1053;-43
2022/05/01 09:43:57;;;;;;;;;;;25.50;40.00;;;;;;5049487;28;921;-43
2022/05/01 09:46:24;;;;;;;;;;;25.50;40.00;;;;;;5047834;28;979;-43
2022/05/01 09:48:58;;;;;;;;;;;25.50;39.90;;;;;;5047418;28;947;-43
2022/05/01 09:51:26;;;;;;;;;;;25.50;40.00;;;;;;5048371;28;898;-43
2022/05/01 09:53:52;;;;;;;;;;;25.50;40.00;;;;;;5047357;28;1325;-43
2022/05/01 09:56:19;;;;;;;;;;;25.50;40.00;;;;;;5049554;28;995;-43
2022/05/01 09:58:46;;;;;;;;;;;25.50;40.00;;;;;;5048507;28;1910;-43
2022/05/01 10:01:15;;;;;;;;;;;25.50;40.00;;;;;;5048642;28;957;-43
2022/05/01 10:03:42;;;;;;;;;;;25.50;40.00;;;;;;5047672;28;948;-43
2022/05/01 10:06:10;;;;;;;;;;;25.50;40.00;;;;;;5048398;28;1008;-43
2022/05/01 10:08:38;;;;;;;;;;;25.50;40.10;;;;;;5048386;28;1040;-43
2022/05/01 10:11:05;;;;;;;;;;;25.50;39.90;;;;;;5047793;28;1026;-43
2022/05/01 10:13:31;;;;;;;;;;;25.50;39.90;;;;;;5047969;28;1024;-41
2022/05/01 10:15:59;;;;;;;;;;;25.60;40.00;;;;;;5046626;28;997;-41
2022/05/01 10:18:27;;;;;;;;;;;25.60;40.00;;;;;;5047414;28;952;-41
2022/05/01 10:20:54;;;;;;;;;;;25.60;39.90;;;;;;5046175;28;1910;-41
2022/05/01 10:23:21;;;;;;;;;;;25.60;40.00;;;;;;5047909;28;933;-41
2022/05/01 10:25:49;;;;;;;;;;;25.60;40.00;;;;;;5048039;28;1002;-43
2022/05/01 10:28:30;;;;;;;;;;;25.50;40.00;;;;;;5046393;28;972;-43
2022/05/01 10:34:06;;;;;;;;;;;25.60;40.00;;;;;;5047269;28;886;-44
2022/05/01 10:36:40;;;;;;;;;;;25.60;39.90;;;;;;5046618;28;1025;-43
2022/05/01 10:39:10;;;;;;;;;;;25.60;39.90;;;;;;5047709;28;1894;-44
2022/05/01 10:41:41;;;;;;;;;;;25.60;39.90;;;;;;5046833;28;1073;-44
2022/05/01 10:44:08;;;;;;;;;;;25.60;39.90;;;;;;5046892;28;989;-44
2022/05/01 10:46:34;;;;;;;;;;;25.60;39.90;;;;;;5045855;28;914;-46
2022/05/01 10:49:05;;;;;;;;;;;25.60;39.70;;;;;;5046172;28;1036;-44
2022/05/01 10:51:47;;;;;;;;;;;25.60;39.80;;;;;;5047439;28;953;-44
2022/05/01 10:54:46;;;;;;;;;;;25.60;39.70;;;;;;5046690;28;1804;-44
2022/05/01 10:57:16;;;;;;;;;;;25.60;39.90;;;;;;4984854;28;925;-44
2022/05/01 10:59:46;;;;;;;;;;;25.70;39.90;;;;;;4985996;28;1984;-44
2022/05/01 11:02:35;;;;;;;;;;;25.70;39.90;;;;;;5015222;28;918;-43
2022/05/01 11:05:04;;;;;;;;;;;25.60;39.80;;;;;;5041680;28;1515;-44
2022/05/01 11:07:31;;;;;;;;;;;25.70;39.90;;;;;;5048522;28;948;-44
2022/05/01 11:09:59;;;;;;;;;;;25.60;39.80;;;;;;5046367;28;968;-44
2022/05/01 11:12:27;;;;;;;;;;;25.60;39.90;;;;;;5046683;28;1025;-44
2022/05/01 11:14:55;;;;;;;;;;;25.70;39.80;;;;;;5045186;28;903;-44
2022/05/01 11:17:46;;;;;;;;;;;25.70;39.70;;;;;;5045692;28;992;-44
2022/05/01 11:20:26;;;;;;;;;;;25.70;39.90;;;;;;5042786;28;1983;-44
2022/05/01 11:22:53;;;;;;;;;;;25.70;39.90;;;;;;5044889;28;899;-44
2022/05/01 11:25:30;;;;;;;;;;;25.70;39.80;;;;;;5041376;28;1010;-44
2022/05/01 11:27:57;;;;;;;;;;;25.70;39.80;;;;;;5039665;28;1045;-44
2022/05/01 11:30:34;;;;;;;;;;;25.70;39.80;;;;;;5043152;28;874;-44
2022/05/01 11:33:01;;;;;;;;;;;25.70;39.70;;;;;;5045174;28;1075;-44
2022/05/01 11:35:42;;;;;;;;;;;25.70;39.80;;;;;;5044509;28;993;-44
2022/05/01 11:38:10;;;;;;;;;;;25.80;39.80;;;;;;5045175;28;1526;-44
2022/05/01 11:40:37;;;;;;;;;;;25.80;39.70;;;;;;5044644;28;1977;-44
2022/05/01 11:43:14;;;;;;;;;;;25.80;39.70;;;;;;5045855;28;828;-44
2022/05/01 11:45:41;;;;;;;;;;;25.80;39.80;;;;;;5047060;28;1008;-45
2022/05/01 11:48:11;;;;;;;;;;;25.80;39.70;;;;;;5046729;28;1011;-44
2022/05/01 11:50:39;;;;;;;;;;;25.80;39.70;;;;;;5047754;28;1025;-44
2022/05/01 11:53:15;;;;;;;;;;;25.80;39.70;;;;;;5047658;28;969;-44
2022/05/01 12:04:01;;;;;;;;;;;25.70;39.70;;;;;;5047109;28;886;-44
2022/05/01 12:06:29;;;;;;;;;;;25.70;39.70;;;;;;5045097;28;1000;-43
2022/05/01 12:08:55;;;;;;;;;;;25.80;39.80;;;;;;5046188;28;892;-44
2022/05/01 12:11:31;;;;;;;;;;;25.70;39.80;;;;;;5049255;28;1008;-43
2022/05/01 12:14:03;;;;;;;;;;;25.80;39.80;;;;;;5051647;28;983;-44
2022/05/01 12:16:30;;;;;;;;;;;25.80;39.80;;;;;;5050775;28;956;-44
2022/05/01 12:18:56;;;;;;;;;;;25.80;39.70;;;;;;5047905;28;988;-43
2022/05/01 12:21:28;;;;;;;;;;;25.80;39.80;;;;;;5050669;28;1913;-43
2022/05/01 12:24:01;;;;;;;;;;;25.80;39.80;;;;;;5051774;28;1841;-44
2022/05/01 12:26:28;;;;;;;;;;;25.80;39.80;;;;;;5050110;28;1250;-44
2022/05/01 12:28:56;;;;;;;;;;;25.80;39.90;;;;;;5047276;28;865;-44
2022/05/01 12:31:23;;;;;;;;;;;25.80;39.90;;;;;;5047148;28;1526;-44
2022/05/01 12:33:52;;;;;;;;;;;25.70;39.80;;;;;;5049084;28;1016;-44
2022/05/01 12:36:23;;;;;;;;;;;25.80;39.80;;;;;;5048575;28;1034;-44
2022/05/01 12:39:00;;;;;;;;;;;25.80;39.90;;;;;;5047507;28;905;-44
2022/05/01 12:44:13;;;;;;;;;;;25.70;39.90;;;;;;5047783;28;1003;-44
2022/05/01 12:46:51;;;;;;;;;;;25.70;40.00;;;;;;5044883;28;881;-44
2022/05/01 12:49:24;;;;;;;;;;;25.70;40.00;;;;;;5047190;28;1039;-44
2022/05/01 12:51:51;;;;;;;;;;;25.70;40.10;;;;;;5046328;28;883;-44
2022/05/01 12:54:17;;;;;;;;;;;25.70;40.00;;;;;;5048037;28;963;-44
2022/05/01 12:56:45;;;;;;;;;;;25.80;40.10;;;;;;5048354;28;917;-44
2022/05/01 12:59:27;;;;;;;;;;;25.70;40.10;;;;;;5048179;28;1057;-44
2022/05/01 13:01:55;;;;;;;;;;;25.70;40.10;;;;;;5047943;28;1983;-44
2022/05/01 13:04:23;;;;;;;;;;;25.80;40.10;;;;;;5047915;28;921;-44
2022/05/01 13:06:49;;;;;;;;;;;25.80;40.10;;;;;;5048352;28;888;-44
2022/05/01 13:09:16;;;;;;;;;;;25.80;40.00;;;;;;5048171;28;949;-44
2022/05/01 13:11:58;;;;;;;;;;;25.70;40.00;;;;;;5048649;28;1429;-44
2022/05/01 13:14:30;;;;;;;;;;;25.70;40.00;;;;;;5047742;28;997;-44
2022/05/01 13:17:07;;;;;;;;;;;25.70;40.10;;;;;;5048111;28;909;-44
2022/05/01 13:19:33;;;;;;;;;;;25.70;40.00;;;;;;5048067;28;969;-44
2022/05/01 13:22:00;;;;;;;;;;;25.80;40.10;;;;;;5048428;28;1918;-43
2022/05/01 13:24:30;;;;;;;;;;;25.80;40.00;;;;;;5049276;28;894;-46
2022/05/01 13:26:57;;;;;;;;;;;25.80;40.00;;;;;;5049235;28;921;-44
2022/05/01 13:29:24;;;;;;;;;;;25.80;40.00;;;;;;5047751;28;988;-44
2022/05/01 13:31:52;;;;;;;;;;;25.80;39.90;;;;;;5040471;28;976;-44
2022/05/01 13:34:19;;;;;;;;;;;25.80;39.90;;;;;;5043665;28;977;-44
2022/05/01 13:36:46;;;;;;;;;;;25.80;36.80;;;;;;5048598;28;1007;-44
2022/05/01 13:39:13;;;;;;;;;;;25.80;36.40;;;;;;5050383;28;1014;-44
2022/05/01 13:47:10;;;;;;;;;;;25.70;34.30;;;;;;5050012;28;661;-44
2022/05/01 13:49:37;;;;;;;;;;;25.70;31.80;;;;;;5050795;28;992;-45
2022/05/01 13:52:05;;;;;;;;;;;25.60;31.30;;;;;;5050976;28;947;-42
2022/05/01 13:54:32;;;;;;;;;;;25.60;31.20;;;;;;5050924;28;982;-43
2022/05/01 13:56:59;;;;;;;;;;;25.50;31.10;;;;;;5050164;28;941;-43
2022/05/01 13:59:26;;;;;;;;;;;25.40;31.30;;;;;;5051047;28;1001;-40
2022/05/01 14:01:54;;;;;;;;;;;25.40;31.30;;;;;;5049459;28;1984;-42
2022/05/01 14:04:22;;;;;;;;;;;25.40;31.20;;;;;;5049911;28;968;-41
2022/05/01 14:06:50;;;;;;;;;;;25.40;31.80;;;;;;5046970;28;1007;-44
2022/05/01 14:09:18;;;;;;;;;;;25.40;31.30;;;;;;5047688;28;1027;-46
2022/05/01 14:11:45;;;;;;;;;;;25.30;31.00;;;;;;5048202;28;1013;-46
2022/05/01 14:14:12;;;;;;;;;;;25.20;31.10;;;;;;5047649;28;1033;-46
2022/05/01 14:16:39;;;;;;;;;;;25.20;30.90;;;;;;5046582;28;914;-46
2022/05/01 14:19:06;;;;;;;;;;;25.20;30.90;;;;;;5046393;28;981;-47
2022/05/01 14:21:38;;;;;;;;;;;25.10;31.20;;;;;;5046632;28;1902;-39
2022/05/01 14:24:05;;;;;;;;;;;25.10;31.60;;;;;;5058817;28;1565;-43
2022/05/01 14:26:32;;;;;;;;;;;25.10;31.30;;;;;;5068398;28;949;-43
2022/05/01 14:28:59;;;;;;;;;;;25.10;31.30;;;;;;5066405;28;1006;-40
2022/05/01 14:31:27;;;;;;;;;;;25.10;31.60;;;;;;5066319;28;1666;-43
2022/05/01 14:33:58;;;;;;;;;;;25.10;31.30;;;;;;5068981;28;1512;-43
2022/05/01 14:36:27;;;;;;;;;;;25.10;30.60;;;;;;5070299;28;1121;-43
2022/05/01 14:39:02;;;;;;;;;;;25.10;30.60;;;;;;5068860;28;987;-43
2022/05/01 14:41:33;;;;;;;;;;;25.10;30.40;;;;;;5065089;28;1987;-43
2022/05/01 14:44:03;;;;;;;;;;;25.00;31.10;;;;;;5066392;28;1123;-43
2022/05/01 14:46:30;;;;;;;;;;;25.10;31.10;;;;;;5066499;28;943;-43
2022/05/01 14:49:00;;;;;;;;;;;25.00;31.30;;;;;;5066412;28;1015;-43
2022/05/01 14:51:28;;;;;;;;;;;25.00;32.00;;;;;;5066826;28;1039;-44
2022/05/01 14:53:57;;;;;;;;;;;25.00;32.30;;;;;;5068596;28;865;-44
2022/05/01 14:56:26;;;;;;;;;;;25.10;32.00;;;;;;5067844;28;971;-46
2022/05/01 15:07:05;;;;;;;;;;;25.00;32.70;;;;;;5067286;28;616;-44
2022/05/01 15:09:36;;;;;;;;;;;25.00;33.10;;;;;;5066774;28;1012;-43
2022/05/01 15:12:04;;;;;;;;;;;25.00;32.90;;;;;;5068948;28;948;-41
2022/05/01 15:14:30;;;;;;;;;;;25.00;32.60;;;;;;5068219;28;1007;-43
2022/05/01 15:17:01;;;;;;;;;;;25.00;32.40;;;;;;5068063;28;878;-41
2022/05/01 15:19:33;;;;;;;;;;;25.10;31.60;;;;;;5066685;28;1048;-43
2022/05/01 15:22:24;;;;;;;;;;;25.10;31.80;;;;;;5067340;28;1898;-43
2022/05/01 15:24:56;;;;;;;;;;;25.10;32.50;;;;;;5066456;28;976;-43
2022/05/01 15:27:36;;;;;;;;;;;25.00;32.80;;;;;;5065046;28;913;-43
2022/05/01 15:30:03;;;;;;;;;;;25.00;32.80;;;;;;5063853;28;984;-43
2022/05/01 15:32:31;;;;;;;;;;;25.00;33.30;;;;;;5066898;28;926;-43
2022/05/01 15:35:00;;;;;;;;;;;25.00;33.10;;;;;;5068726;28;1900;-43
2022/05/01 15:37:31;;;;;;;;;;;25.10;33.10;;;;;;5069738;28;936;-42
2022/05/01 15:40:03;;;;;;;;;;;25.00;33.30;;;;;;5070263;28;952;-43
2022/05/01 15:42:32;;;;;;;;;;;25.10;33.10;;;;;;5070243;28;1910;-43
2022/05/01 15:45:02;;;;;;;;;;;25.10;33.00;;;;;;5071810;28;1000;-46